• Join FlightAware (Why Join?)
  • Login
  • US Flag 
05:36PM EST


 

Airport Tracker/Info


-or-


 

Live Flight TrackerFlight Track Log ✈ N960DL ✈ 01-May-2013 ✈ KATL - KSTL

Flight Track Log - Related Links

Times and Time Zones

All times are in EDT time to prevent confusion due to time zone crossing. See the N960DL flight status page for this flight to view local times or setup timezone preferences in your user account.

Time Position Orientation Groundspeed Altitude Reporting Facility
EDT Latitude Longitude Course Direction KTS MPH feet Rate Location/Type
11:27AM 33.6500 -84.3667 North 184 212 2,900  Level Atlanta TRACON
11:29AM 33.8991 -84.5729 342° North  Level FlightAware Approximate
11:29AM 33.6833 -84.2167 75° East 275 316 9,300  Level Atlanta TRACON
11:30AM 34.0101 -84.6173 342° North  Level FlightAware Approximate
11:31AM 34.1212 -84.6617 342° North  Level FlightAware Approximate
11:31AM 33.8381 -84.1839 10° North 296 341 9,900  Level Atlanta Center
11:32AM 34.2331 -84.7000 North  Level FlightAware Approximate
11:32AM 33.9067 -84.2467 323° Northwest 306 352 10,500  Level Atlanta Center
11:33AM 33.9650 -84.3244 312° West 327 376 12,900 2,340 Climbing Atlanta Center
11:34AM 34.0086 -84.4172 300° West 341 392 15,200 2,820 Climbing Atlanta Center
11:35AM 34.0875 -84.5203 313° West 370 426 18,600 2,760 Climbing Atlanta Center
11:36AM 34.1708 -84.6111 318° Northwest 386 444 20,800 2,160 Climbing Atlanta Center
11:37AM 34.2517 -84.7047 316° Northwest 400 460 23,000 2,040 Climbing Atlanta Center
11:38AM 34.3619 -84.7586 338° Northwest 411 473 24,900 1,620 Climbing Atlanta Center
11:39AM 34.4744 -84.8097 339° North 428 493 26,300 1,440 Climbing Atlanta Center
11:40AM 34.5972 -84.8639 340° North 453 521 27,800 1,680 Climbing Atlanta Center
11:41AM 34.7033 -84.9106 340° North 460 529 29,700 1,560 Climbing Atlanta Center
11:42AM 34.8069 -84.9950 326° Northwest 460 529 31,000 1,320 Climbing Atlanta Center
11:43AM 34.8936 -85.1022 315° West 451 519 32,400 1,200 Climbing Atlanta Center
11:44AM 34.9803 -85.2100 314° West 445 512 33,500 1,140 Climbing Atlanta Center
11:46AM 35.1511 -85.4203 315° West 442 509 35,700 840 Climbing Memphis Center
11:47AM 35.2344 -85.5247 314° West 437 503 36,000 120 Climbing Memphis Center
11:48AM 35.3003 -85.6072 314° West 437 503 36,000  Level Memphis Center
11:49AM 35.3900 -85.7244 313° West 432 497 36,000  Level Memphis Center
11:50AM 35.4733 -85.8319 314° West 432 497 36,000  Level Memphis Center
11:51AM 35.5564 -85.9372 314° West 432 497 36,000  Level Memphis Center
11:52AM 35.6394 -86.0425 314° West 432 497 36,000  Level Memphis Center
11:53AM 35.7200 -86.1483 313° West 432 497 36,000  Level Memphis Center
11:54AM 35.8031 -86.2542 314° West 432 497 36,000  Level Memphis Center
11:55AM 35.8878 -86.3600 315° West 432 497 36,000  Level Memphis Center
11:56AM 35.9683 -86.4689 312° West 432 497 36,000  Level Memphis Center
11:57AM 36.0594 -86.5853 314° West 437 503 36,000  Level Memphis Center
11:58AM 36.1400 -86.6947 312° West 437 503 36,000  Level Memphis Center
11:59AM 36.1894 -86.8261 295° West 426 490 36,000  Level Memphis Center
12:00PM 36.2456 -86.9653 297° West 439 505 36,000  Level Memphis Center
12:01PM 36.2925 -87.0844 296° West 444 511 36,000  Level Memphis Center
12:02PM 36.3458 -87.2136 297° West 434 499 36,000  Level Memphis Center
12:03PM 36.3992 -87.3481 296° West 434 499 36,000  Level Memphis Center
12:04PM 36.4525 -87.4803 297° West 429 494 36,000  Level Memphis Center
12:05PM 36.5033 -87.6128 296° West 429 494 36,000  Level Memphis Center
12:06PM 36.5586 -87.7581 295° West 429 494 36,000  Level Memphis Center
12:07PM 36.6133 -87.8908 297° West 429 494 36,000  Level Memphis Center
12:08PM 36.6639 -88.0264 295° West 434 499 36,000  Level Memphis Center
12:09PM 36.7186 -88.1567 298° West 429 494 36,000 -540 Level Memphis Center
12:10PM 36.7708 -88.2900 296° West 429 494 35,000 -540 Descending Memphis Center
12:11PM 36.8208 -88.4233 295° West 429 494 35,000  Level Memphis Center
12:12PM 36.8708 -88.5597 295° West 429 494 35,000 -540 Level Memphis Center
12:13PM 36.9208 -88.6961 295° West 429 494 34,000 -540 Descending Memphis Center
12:14PM 36.9703 -88.8328 294° West 434 499 34,000 -360 Level Memphis Center
12:15PM 37.0375 -89.0242 294° West 435 501 33,200 -1,440 Descending Kansas City Center
12:16PM 37.0964 -89.1914 294° West 439 505 30,400 -2,280 Descending Kansas City Center
12:17PM 37.1475 -89.3344 294° West 447 514 28,500 -1,800 Descending Kansas City Center
12:19PM 37.1983 -89.4747 294° West 447 514 26,700 -1,260 Descending Kansas City Center
12:20PM 37.2744 -89.5967 308° West 451 519 26,000 -720 Descending Kansas City Center
12:21PM 37.3897 -89.6606 336° Northwest 453 521 25,300 -1,020 Descending Kansas City Center
12:22PM 37.5033 -89.7208 337° Northwest 444 511 23,900 -1,560 Descending Kansas City Center
12:23PM 37.6264 -89.7883 337° Northwest 447 514 22,100 -1,620 Descending Kansas City Center
12:24PM 37.7342 -89.8475 337° Northwest 430 495 20,600 -1,560 Descending Kansas City Center
12:25PM 37.8428 -89.9058 337° Northwest 424 488 18,900 -1,680 Descending Kansas City Center
12:26PM 37.9683 -89.9761 336° Northwest 413 475 17,200 -1,500 Descending Kansas City Center
12:27PM 38.0706 -90.0317 337° Northwest 404 465 15,800 -1,320 Descending Kansas City Center
12:28PM 38.1736 -90.0881 337° Northwest 404 465 14,500 -1,260 Descending Kansas City Center
12:29PM 38.2733 -90.1444 336° Northwest 397 457 13,300 -1,140 Descending Kansas City Center
12:30PM 38.3717 -90.1997 336° Northwest 389 448 12,200 -1,140 Descending Kansas City Center
12:31PM 38.4847 -90.2639 336° Northwest 382 440 11,000 -1,080 Descending Kansas City Center
12:32PM 38.5786 -90.3175 336° Northwest 375 432 10,000 -1,020 Descending Kansas City Center
12:33PM 38.6581 -90.3656 335° Northwest 325 374 9,000 -1,020 Descending Kansas City Center
12:33PM 38.6667 -90.3833 302° West 305 351 8,700 -1,440 Descending Gateway (St. Louis) TRACON
12:34PM 38.7017 -90.4525 303° West 282 325 7,500 -1,860 Descending Kansas City Center
12:35PM 38.7353 -90.5244 301° West 244 281 5,400 -1,620 Descending Kansas City Center
12:36PM 38.7678 -90.5906 302° West 227 261 4,200 -1,200 Descending Kansas City Center